sensor_id;sensor_type;location;lat;lon;timestamp;P1;durP1;ratioP1;P2;durP2;ratioP2
26082;SDS011;13848;49.018;12.078;2023-02-28T00:01:44;6.22;;;3.28;;
26082;SDS011;13848;49.018;12.078;2023-02-28T00:04:10;5.15;;;3.00;;
26082;SDS011;13848;49.018;12.078;2023-02-28T00:06:36;6.20;;;3.25;;
26082;SDS011;13848;49.018;12.078;2023-02-28T00:09:02;5.20;;;3.17;;
26082;SDS011;13848;49.018;12.078;2023-02-28T00:11:28;5.25;;;3.28;;
26082;SDS011;13848;49.018;12.078;2023-02-28T00:13:55;6.22;;;3.08;;
26082;SDS011;13848;49.018;12.078;2023-02-28T00:16:21;6.03;;;3.22;;
26082;SDS011;13848;49.018;12.078;2023-02-28T00:18:48;4.55;;;3.25;;
26082;SDS011;13848;49.018;12.078;2023-02-28T00:21:14;7.47;;;3.22;;
26082;SDS011;13848;49.018;12.078;2023-02-28T00:23:41;6.78;;;3.40;;
26082;SDS011;13848;49.018;12.078;2023-02-28T00:26:10;6.13;;;3.20;;
26082;SDS011;13848;49.018;12.078;2023-02-28T00:28:36;5.70;;;3.70;;
26082;SDS011;13848;49.018;12.078;2023-02-28T00:31:03;5.25;;;3.13;;
26082;SDS011;13848;49.018;12.078;2023-02-28T00:33:29;5.88;;;3.50;;
26082;SDS011;13848;49.018;12.078;2023-02-28T00:36:05;5.82;;;3.38;;
26082;SDS011;13848;49.018;12.078;2023-02-28T00:38:32;6.53;;;3.65;;
26082;SDS011;13848;49.018;12.078;2023-02-28T00:40:58;5.50;;;3.25;;
26082;SDS011;13848;49.018;12.078;2023-02-28T00:43:24;7.53;;;3.72;;
26082;SDS011;13848;49.018;12.078;2023-02-28T00:45:50;8.52;;;3.90;;
26082;SDS011;13848;49.018;12.078;2023-02-28T00:48:17;7.13;;;3.70;;
26082;SDS011;13848;49.018;12.078;2023-02-28T00:50:43;6.28;;;3.92;;
26082;SDS011;13848;49.018;12.078;2023-02-28T00:53:09;6.15;;;3.15;;
26082;SDS011;13848;49.018;12.078;2023-02-28T00:55:35;6.57;;;3.45;;
26082;SDS011;13848;49.018;12.078;2023-02-28T00:58:01;9.15;;;3.83;;
26082;SDS011;13848;49.018;12.078;2023-02-28T01:00:27;4.70;;;3.30;;
26082;SDS011;13848;49.018;12.078;2023-02-28T01:02:53;6.40;;;3.22;;
26082;SDS011;13848;49.018;12.078;2023-02-28T01:05:20;7.93;;;3.63;;
26082;SDS011;13848;49.018;12.078;2023-02-28T01:07:46;7.00;;;3.55;;
26082;SDS011;13848;49.018;12.078;2023-02-28T01:10:12;5.82;;;3.45;;
26082;SDS011;13848;49.018;12.078;2023-02-28T01:12:38;7.45;;;3.70;;
26082;SDS011;13848;49.018;12.078;2023-02-28T01:15:05;5.90;;;3.63;;
26082;SDS011;13848;49.018;12.078;2023-02-28T01:17:31;7.13;;;3.65;;
26082;SDS011;13848;49.018;12.078;2023-02-28T01:19:57;8.00;;;3.80;;
26082;SDS011;13848;49.018;12.078;2023-02-28T01:22:25;7.25;;;3.58;;
26082;SDS011;13848;49.018;12.078;2023-02-28T01:24:51;6.13;;;3.75;;
26082;SDS011;13848;49.018;12.078;2023-02-28T01:27:16;4.18;;;2.65;;
26082;SDS011;13848;49.018;12.078;2023-02-28T01:29:42;7.38;;;3.97;;
26082;SDS011;13848;49.018;12.078;2023-02-28T01:32:08;7.25;;;3.80;;
26082;SDS011;13848;49.018;12.078;2023-02-28T01:34:34;8.30;;;3.88;;
26082;SDS011;13848;49.018;12.078;2023-02-28T01:37:00;6.28;;;4.05;;
26082;SDS011;13848;49.018;12.078;2023-02-28T01:39:27;6.15;;;3.35;;
26082;SDS011;13848;49.018;12.078;2023-02-28T01:41:53;6.63;;;3.90;;
26082;SDS011;13848;49.018;12.078;2023-02-28T01:47:27;7.85;;;3.65;;
26082;SDS011;13848;49.018;12.078;2023-02-28T01:49:57;7.97;;;4.10;;
26082;SDS011;13848;49.018;12.078;2023-02-28T01:52:24;8.15;;;4.32;;
26082;SDS011;13848;49.018;12.078;2023-02-28T01:54:53;6.30;;;3.70;;
26082;SDS011;13848;49.018;12.078;2023-02-28T01:57:21;5.47;;;3.80;;
26082;SDS011;13848;49.018;12.078;2023-02-28T01:59:52;6.25;;;3.60;;
26082;SDS011;13848;49.018;12.078;2023-02-28T02:02:22;7.00;;;4.18;;
26082;SDS011;13848;49.018;12.078;2023-02-28T02:04:50;5.93;;;3.53;;
26082;SDS011;13848;49.018;12.078;2023-02-28T02:07:19;6.82;;;4.20;;
26082;SDS011;13848;49.018;12.078;2023-02-28T02:09:47;7.53;;;4.20;;
26082;SDS011;13848;49.018;12.078;2023-02-28T02:12:15;5.68;;;3.60;;
26082;SDS011;13848;49.018;12.078;2023-02-28T02:14:54;7.90;;;3.67;;
26082;SDS011;13848;49.018;12.078;2023-02-28T02:17:31;6.47;;;3.83;;
26082;SDS011;13848;49.018;12.078;2023-02-28T02:23:15;9.80;;;4.20;;
26082;SDS011;13848;49.018;12.078;2023-02-28T02:25:58;9.35;;;4.18;;
26082;SDS011;13848;49.018;12.078;2023-02-28T02:28:46;8.80;;;4.30;;
26082;SDS011;13848;49.018;12.078;2023-02-28T02:31:48;8.48;;;4.03;;
26082;SDS011;13848;49.018;12.078;2023-02-28T02:34:40;6.28;;;3.95;;
26082;SDS011;13848;49.018;12.078;2023-02-28T02:37:14;7.47;;;4.30;;
26082;SDS011;13848;49.018;12.078;2023-02-28T02:39:47;8.48;;;4.22;;
26082;SDS011;13848;49.018;12.078;2023-02-28T02:42:19;7.50;;;3.83;;
26082;SDS011;13848;49.018;12.078;2023-02-28T02:44:51;7.85;;;4.00;;
26082;SDS011;13848;49.018;12.078;2023-02-28T02:47:24;7.15;;;4.28;;
26082;SDS011;13848;49.018;12.078;2023-02-28T02:49:55;7.43;;;3.95;;
26082;SDS011;13848;49.018;12.078;2023-02-28T02:52:24;7.57;;;4.03;;
26082;SDS011;13848;49.018;12.078;2023-02-28T02:54:55;8.18;;;4.10;;
26082;SDS011;13848;49.018;12.078;2023-02-28T02:57:25;8.30;;;4.30;;
26082;SDS011;13848;49.018;12.078;2023-02-28T02:59:57;8.32;;;4.38;;
26082;SDS011;13848;49.018;12.078;2023-02-28T03:02:25;8.40;;;3.83;;
26082;SDS011;13848;49.018;12.078;2023-02-28T03:04:56;6.65;;;4.05;;
26082;SDS011;13848;49.018;12.078;2023-02-28T03:07:26;7.68;;;4.20;;
26082;SDS011;13848;49.018;12.078;2023-02-28T03:09:52;8.52;;;4.63;;
26082;SDS011;13848;49.018;12.078;2023-02-28T03:12:19;5.85;;;3.88;;
26082;SDS011;13848;49.018;12.078;2023-02-28T03:14:52;7.68;;;4.07;;
26082;SDS011;13848;49.018;12.078;2023-02-28T03:17:30;6.03;;;3.90;;
26082;SDS011;13848;49.018;12.078;2023-02-28T03:20:09;8.82;;;4.75;;
26082;SDS011;13848;49.018;12.078;2023-02-28T03:22:46;8.15;;;4.70;;
26082;SDS011;13848;49.018;12.078;2023-02-28T03:25:19;8.27;;;4.45;;
26082;SDS011;13848;49.018;12.078;2023-02-28T03:27:57;8.35;;;4.50;;
26082;SDS011;13848;49.018;12.078;2023-02-28T03:30:31;8.52;;;4.63;;
26082;SDS011;13848;49.018;12.078;2023-02-28T03:33:03;9.70;;;4.70;;
26082;SDS011;13848;49.018;12.078;2023-02-28T03:38:05;8.68;;;4.60;;
26082;SDS011;13848;49.018;12.078;2023-02-28T03:40:36;8.95;;;4.63;;
26082;SDS011;13848;49.018;12.078;2023-02-28T03:43:07;7.85;;;4.22;;
26082;SDS011;13848;49.018;12.078;2023-02-28T03:45:37;8.00;;;4.50;;
26082;SDS011;13848;49.018;12.078;2023-02-28T03:48:06;8.57;;;4.75;;
26082;SDS011;13848;49.018;12.078;2023-02-28T03:50:39;7.60;;;4.60;;
26082;SDS011;13848;49.018;12.078;2023-02-28T03:53:08;7.90;;;4.55;;
26082;SDS011;13848;49.018;12.078;2023-02-28T03:55:39;9.35;;;4.82;;
26082;SDS011;13848;49.018;12.078;2023-02-28T03:58:11;9.18;;;4.95;;
26082;SDS011;13848;49.018;12.078;2023-02-28T04:00:43;7.75;;;4.50;;
26082;SDS011;13848;49.018;12.078;2023-02-28T04:03:12;8.55;;;4.82;;
26082;SDS011;13848;49.018;12.078;2023-02-28T04:05:46;8.60;;;4.63;;
26082;SDS011;13848;49.018;12.078;2023-02-28T04:08:15;8.20;;;4.80;;
26082;SDS011;13848;49.018;12.078;2023-02-28T04:10:41;11.52;;;4.90;;
26082;SDS011;13848;49.018;12.078;2023-02-28T04:13:10;9.05;;;4.95;;
26082;SDS011;13848;49.018;12.078;2023-02-28T04:15:36;10.45;;;5.30;;
26082;SDS011;13848;49.018;12.078;2023-02-28T04:18:02;7.40;;;4.88;;
26082;SDS011;13848;49.018;12.078;2023-02-28T04:20:28;11.90;;;5.20;;
26082;SDS011;13848;49.018;12.078;2023-02-28T04:22:55;9.27;;;5.18;;
26082;SDS011;13848;49.018;12.078;2023-02-28T04:25:21;8.88;;;4.95;;
26082;SDS011;13848;49.018;12.078;2023-02-28T04:27:47;8.65;;;4.90;;
26082;SDS011;13848;49.018;12.078;2023-02-28T04:30:13;9.10;;;5.22;;
26082;SDS011;13848;49.018;12.078;2023-02-28T04:32:39;8.10;;;5.32;;
26082;SDS011;13848;49.018;12.078;2023-02-28T04:35:05;9.73;;;5.43;;
26082;SDS011;13848;49.018;12.078;2023-02-28T04:37:32;9.27;;;5.18;;
26082;SDS011;13848;49.018;12.078;2023-02-28T04:39:59;10.60;;;5.13;;
26082;SDS011;13848;49.018;12.078;2023-02-28T04:42:25;10.35;;;5.63;;
26082;SDS011;13848;49.018;12.078;2023-02-28T04:44:51;9.52;;;5.22;;
26082;SDS011;13848;49.018;12.078;2023-02-28T04:47:17;10.02;;;5.45;;
26082;SDS011;13848;49.018;12.078;2023-02-28T04:49:43;9.48;;;5.22;;
26082;SDS011;13848;49.018;12.078;2023-02-28T04:52:09;10.27;;;5.68;;
26082;SDS011;13848;49.018;12.078;2023-02-28T04:54:34;8.55;;;5.30;;
26082;SDS011;13848;49.018;12.078;2023-02-28T04:57:02;10.85;;;5.70;;
26082;SDS011;13848;49.018;12.078;2023-02-28T04:59:28;11.60;;;5.43;;
26082;SDS011;13848;49.018;12.078;2023-02-28T05:01:54;10.45;;;5.97;;
26082;SDS011;13848;49.018;12.078;2023-02-28T05:04:20;13.07;;;5.95;;
26082;SDS011;13848;49.018;12.078;2023-02-28T05:06:45;9.45;;;4.95;;
26082;SDS011;13848;49.018;12.078;2023-02-28T05:09:11;8.15;;;4.80;;
26082;SDS011;13848;49.018;12.078;2023-02-28T05:11:37;8.82;;;5.30;;
26082;SDS011;13848;49.018;12.078;2023-02-28T05:14:06;10.13;;;5.78;;
26082;SDS011;13848;49.018;12.078;2023-02-28T05:16:35;9.00;;;5.13;;
26082;SDS011;13848;49.018;12.078;2023-02-28T05:19:01;9.77;;;5.13;;
26082;SDS011;13848;49.018;12.078;2023-02-28T05:21:28;9.45;;;5.45;;
26082;SDS011;13848;49.018;12.078;2023-02-28T05:23:56;8.52;;;4.95;;
26082;SDS011;13848;49.018;12.078;2023-02-28T05:26:24;10.43;;;5.82;;
26082;SDS011;13848;49.018;12.078;2023-02-28T05:28:50;11.73;;;5.85;;
26082;SDS011;13848;49.018;12.078;2023-02-28T05:31:18;10.30;;;5.80;;
26082;SDS011;13848;49.018;12.078;2023-02-28T05:33:44;12.38;;;6.13;;
26082;SDS011;13848;49.018;12.078;2023-02-28T05:36:10;15.23;;;5.82;;
26082;SDS011;13848;49.018;12.078;2023-02-28T05:38:36;11.95;;;5.28;;
26082;SDS011;13848;49.018;12.078;2023-02-28T05:41:04;10.95;;;5.97;;
26082;SDS011;13848;49.018;12.078;2023-02-28T05:43:31;10.77;;;5.70;;
26082;SDS011;13848;49.018;12.078;2023-02-28T05:45:56;11.57;;;5.15;;
26082;SDS011;13848;49.018;12.078;2023-02-28T05:48:24;12.55;;;5.93;;
26082;SDS011;13848;49.018;12.078;2023-02-28T05:50:50;10.05;;;5.40;;
26082;SDS011;13848;49.018;12.078;2023-02-28T05:53:16;10.63;;;5.88;;
26082;SDS011;13848;49.018;12.078;2023-02-28T05:55:42;9.93;;;5.28;;
26082;SDS011;13848;49.018;12.078;2023-02-28T05:58:07;11.52;;;5.88;;
26082;SDS011;13848;49.018;12.078;2023-02-28T06:00:33;11.55;;;5.60;;
26082;SDS011;13848;49.018;12.078;2023-02-28T06:02:59;10.45;;;6.05;;
26082;SDS011;13848;49.018;12.078;2023-02-28T06:05:27;9.05;;;5.18;;
26082;SDS011;13848;49.018;12.078;2023-02-28T06:07:53;8.32;;;4.80;;
26082;SDS011;13848;49.018;12.078;2023-02-28T06:10:19;12.65;;;5.97;;
26082;SDS011;13848;49.018;12.078;2023-02-28T06:12:45;13.70;;;6.47;;
26082;SDS011;13848;49.018;12.078;2023-02-28T06:15:12;19.63;;;9.00;;
26082;SDS011;13848;49.018;12.078;2023-02-28T06:17:38;18.83;;;7.75;;
26082;SDS011;13848;49.018;12.078;2023-02-28T06:20:04;20.45;;;9.23;;
26082;SDS011;13848;49.018;12.078;2023-02-28T06:22:33;14.10;;;6.00;;
26082;SDS011;13848;49.018;12.078;2023-02-28T06:24:58;13.57;;;6.05;;
26082;SDS011;13848;49.018;12.078;2023-02-28T06:27:24;12.57;;;6.70;;
26082;SDS011;13848;49.018;12.078;2023-02-28T06:29:53;14.27;;;5.40;;
26082;SDS011;13848;49.018;12.078;2023-02-28T06:32:19;8.63;;;5.22;;
26082;SDS011;13848;49.018;12.078;2023-02-28T06:34:45;15.20;;;6.05;;
26082;SDS011;13848;49.018;12.078;2023-02-28T06:37:11;10.63;;;5.80;;
26082;SDS011;13848;49.018;12.078;2023-02-28T06:39:38;12.35;;;6.22;;
26082;SDS011;13848;49.018;12.078;2023-02-28T06:42:06;11.38;;;6.43;;
26082;SDS011;13848;49.018;12.078;2023-02-28T06:44:32;9.55;;;5.85;;
26082;SDS011;13848;49.018;12.078;2023-02-28T06:46:58;10.18;;;4.93;;
26082;SDS011;13848;49.018;12.078;2023-02-28T06:49:24;9.65;;;5.63;;
26082;SDS011;13848;49.018;12.078;2023-02-28T06:51:50;10.75;;;5.90;;
26082;SDS011;13848;49.018;12.078;2023-02-28T06:54:16;10.32;;;5.57;;
26082;SDS011;13848;49.018;12.078;2023-02-28T06:56:43;10.90;;;5.25;;
26082;SDS011;13848;49.018;12.078;2023-02-28T06:59:09;11.45;;;5.60;;
26082;SDS011;13848;49.018;12.078;2023-02-28T07:01:35;7.75;;;5.00;;
26082;SDS011;13848;49.018;12.078;2023-02-28T07:04:01;7.68;;;5.15;;
26082;SDS011;13848;49.018;12.078;2023-02-28T07:06:27;9.85;;;5.28;;
26082;SDS011;13848;49.018;12.078;2023-02-28T07:08:53;8.48;;;5.28;;
26082;SDS011;13848;49.018;12.078;2023-02-28T07:11:20;8.45;;;5.15;;
26082;SDS011;13848;49.018;12.078;2023-02-28T07:13:48;7.55;;;4.32;;
26082;SDS011;13848;49.018;12.078;2023-02-28T07:16:14;9.73;;;5.70;;
26082;SDS011;13848;49.018;12.078;2023-02-28T07:18:40;10.27;;;5.50;;
26082;SDS011;13848;49.018;12.078;2023-02-28T07:21:07;7.35;;;5.10;;
26082;SDS011;13848;49.018;12.078;2023-02-28T07:23:35;9.57;;;5.70;;
26082;SDS011;13848;49.018;12.078;2023-02-28T07:26:01;8.93;;;4.82;;
26082;SDS011;13848;49.018;12.078;2023-02-28T07:28:27;14.93;;;5.70;;
26082;SDS011;13848;49.018;12.078;2023-02-28T07:30:54;8.68;;;4.85;;
26082;SDS011;13848;49.018;12.078;2023-02-28T07:33:20;11.82;;;5.43;;
26082;SDS011;13848;49.018;12.078;2023-02-28T07:35:46;10.60;;;5.28;;
26082;SDS011;13848;49.018;12.078;2023-02-28T07:38:12;8.55;;;5.45;;
26082;SDS011;13848;49.018;12.078;2023-02-28T07:40:39;9.75;;;5.60;;
26082;SDS011;13848;49.018;12.078;2023-02-28T07:43:05;11.48;;;5.60;;
26082;SDS011;13848;49.018;12.078;2023-02-28T07:45:31;11.88;;;6.13;;
26082;SDS011;13848;49.018;12.078;2023-02-28T07:47:59;11.13;;;5.88;;
26082;SDS011;13848;49.018;12.078;2023-02-28T07:50:25;7.88;;;4.82;;
26082;SDS011;13848;49.018;12.078;2023-02-28T07:52:52;11.63;;;5.45;;
26082;SDS011;13848;49.018;12.078;2023-02-28T07:55:18;9.13;;;5.25;;
26082;SDS011;13848;49.018;12.078;2023-02-28T07:57:44;10.75;;;5.85;;
26082;SDS011;13848;49.018;12.078;2023-02-28T08:00:11;13.57;;;5.20;;
26082;SDS011;13848;49.018;12.078;2023-02-28T08:02:38;9.52;;;5.28;;
26082;SDS011;13848;49.018;12.078;2023-02-28T08:05:07;11.10;;;5.65;;
26082;SDS011;13848;49.018;12.078;2023-02-28T08:07:33;12.27;;;5.95;;
26082;SDS011;13848;49.018;12.078;2023-02-28T08:09:59;8.82;;;5.82;;
26082;SDS011;13848;49.018;12.078;2023-02-28T08:12:25;11.63;;;5.65;;
26082;SDS011;13848;49.018;12.078;2023-02-28T08:14:51;9.25;;;5.40;;
26082;SDS011;13848;49.018;12.078;2023-02-28T08:17:17;9.50;;;5.85;;
26082;SDS011;13848;49.018;12.078;2023-02-28T08:19:44;9.48;;;5.72;;
26082;SDS011;13848;49.018;12.078;2023-02-28T08:22:12;7.82;;;5.22;;
26082;SDS011;13848;49.018;12.078;2023-02-28T08:24:38;9.55;;;5.65;;
26082;SDS011;13848;49.018;12.078;2023-02-28T08:27:06;10.07;;;5.53;;
26082;SDS011;13848;49.018;12.078;2023-02-28T08:29:32;11.30;;;5.53;;
26082;SDS011;13848;49.018;12.078;2023-02-28T08:31:58;9.23;;;5.47;;
26082;SDS011;13848;49.018;12.078;2023-02-28T08:34:23;9.70;;;5.72;;
26082;SDS011;13848;49.018;12.078;2023-02-28T08:36:49;8.30;;;5.15;;
26082;SDS011;13848;49.018;12.078;2023-02-28T08:39:17;12.95;;;5.47;;
26082;SDS011;13848;49.018;12.078;2023-02-28T08:41:43;12.43;;;5.53;;
26082;SDS011;13848;49.018;12.078;2023-02-28T08:44:09;9.43;;;5.63;;
26082;SDS011;13848;49.018;12.078;2023-02-28T08:46:34;8.02;;;5.57;;
26082;SDS011;13848;49.018;12.078;2023-02-28T08:49:00;9.18;;;5.43;;
26082;SDS011;13848;49.018;12.078;2023-02-28T08:51:27;11.05;;;6.18;;
26082;SDS011;13848;49.018;12.078;2023-02-28T08:53:54;10.57;;;5.80;;
26082;SDS011;13848;49.018;12.078;2023-02-28T08:56:24;8.68;;;5.78;;
26082;SDS011;13848;49.018;12.078;2023-02-28T08:58:50;10.10;;;5.07;;
26082;SDS011;13848;49.018;12.078;2023-02-28T09:01:17;9.00;;;5.18;;
26082;SDS011;13848;49.018;12.078;2023-02-28T09:03:44;8.00;;;5.68;;
26082;SDS011;13848;49.018;12.078;2023-02-28T09:06:11;10.57;;;5.65;;
26082;SDS011;13848;49.018;12.078;2023-02-28T09:08:39;10.45;;;5.57;;
26082;SDS011;13848;49.018;12.078;2023-02-28T09:11:05;12.07;;;5.60;;
26082;SDS011;13848;49.018;12.078;2023-02-28T09:13:33;10.88;;;6.05;;
26082;SDS011;13848;49.018;12.078;2023-02-28T09:15:59;9.48;;;6.13;;
26082;SDS011;13848;49.018;12.078;2023-02-28T09:18:26;10.93;;;5.82;;
26082;SDS011;13848;49.018;12.078;2023-02-28T09:20:53;9.43;;;5.97;;
26082;SDS011;13848;49.018;12.078;2023-02-28T09:23:19;9.82;;;6.10;;
26082;SDS011;13848;49.018;12.078;2023-02-28T09:25:46;10.45;;;5.93;;
26082;SDS011;13848;49.018;12.078;2023-02-28T09:28:13;9.57;;;5.85;;
26082;SDS011;13848;49.018;12.078;2023-02-28T09:30:42;10.63;;;6.22;;
26082;SDS011;13848;49.018;12.078;2023-02-28T09:33:10;11.40;;;6.53;;
26082;SDS011;13848;49.018;12.078;2023-02-28T09:35:37;11.80;;;6.55;;
26082;SDS011;13848;49.018;12.078;2023-02-28T09:38:03;10.32;;;6.13;;
26082;SDS011;13848;49.018;12.078;2023-02-28T09:40:29;8.27;;;5.22;;
26082;SDS011;13848;49.018;12.078;2023-02-28T09:42:55;11.00;;;5.63;;
26082;SDS011;13848;49.018;12.078;2023-02-28T09:45:26;9.27;;;5.18;;
26082;SDS011;13848;49.018;12.078;2023-02-28T09:47:58;9.38;;;5.43;;
26082;SDS011;13848;49.018;12.078;2023-02-28T09:50:30;7.43;;;5.40;;
26082;SDS011;13848;49.018;12.078;2023-02-28T09:55:28;9.25;;;4.20;;
26082;SDS011;13848;49.018;12.078;2023-02-28T09:57:58;9.55;;;5.88;;
26082;SDS011;13848;49.018;12.078;2023-02-28T10:00:28;8.90;;;5.43;;
26082;SDS011;13848;49.018;12.078;2023-02-28T10:03:05;9.63;;;5.60;;
26082;SDS011;13848;49.018;12.078;2023-02-28T10:05:41;11.27;;;5.93;;
26082;SDS011;13848;49.018;12.078;2023-02-28T10:08:14;9.80;;;5.97;;
26082;SDS011;13848;49.018;12.078;2023-02-28T10:10:44;10.50;;;5.72;;
26082;SDS011;13848;49.018;12.078;2023-02-28T10:13:17;9.25;;;5.28;;
26082;SDS011;13848;49.018;12.078;2023-02-28T10:15:49;11.68;;;6.35;;
26082;SDS011;13848;49.018;12.078;2023-02-28T10:18:22;12.20;;;6.10;;
26082;SDS011;13848;49.018;12.078;2023-02-28T10:20:52;8.77;;;5.60;;
26082;SDS011;13848;49.018;12.078;2023-02-28T10:23:21;15.70;;;7.57;;
26082;SDS011;13848;49.018;12.078;2023-02-28T10:25:50;8.88;;;5.60;;
26082;SDS011;13848;49.018;12.078;2023-02-28T10:28:20;10.83;;;5.90;;
26082;SDS011;13848;49.018;12.078;2023-02-28T10:30:47;11.35;;;5.65;;
26082;SDS011;13848;49.018;12.078;2023-02-28T10:33:17;10.88;;;5.85;;
26082;SDS011;13848;49.018;12.078;2023-02-28T10:35:48;8.68;;;5.68;;
26082;SDS011;13848;49.018;12.078;2023-02-28T10:38:16;8.65;;;5.50;;
26082;SDS011;13848;49.018;12.078;2023-02-28T10:40:43;8.43;;;5.30;;
26082;SDS011;13848;49.018;12.078;2023-02-28T10:43:17;7.63;;;5.53;;
26082;SDS011;13848;49.018;12.078;2023-02-28T10:45:52;10.43;;;6.20;;
26082;SDS011;13848;49.018;12.078;2023-02-28T10:48:32;11.90;;;5.70;;
26082;SDS011;13848;49.018;12.078;2023-02-28T10:51:03;9.25;;;5.90;;
26082;SDS011;13848;49.018;12.078;2023-02-28T10:53:31;9.48;;;5.65;;
26082;SDS011;13848;49.018;12.078;2023-02-28T10:56:00;9.70;;;5.93;;
26082;SDS011;13848;49.018;12.078;2023-02-28T10:58:28;9.90;;;5.90;;
26082;SDS011;13848;49.018;12.078;2023-02-28T11:00:56;9.77;;;6.18;;
26082;SDS011;13848;49.018;12.078;2023-02-28T11:03:28;10.60;;;5.57;;
26082;SDS011;13848;49.018;12.078;2023-02-28T11:05:56;9.23;;;5.70;;
26082;SDS011;13848;49.018;12.078;2023-02-28T11:08:24;9.45;;;6.00;;
26082;SDS011;13848;49.018;12.078;2023-02-28T11:10:53;12.73;;;5.90;;
26082;SDS011;13848;49.018;12.078;2023-02-28T11:13:31;10.52;;;5.97;;
26082;SDS011;13848;49.018;12.078;2023-02-28T11:15:59;10.90;;;6.28;;
26082;SDS011;13848;49.018;12.078;2023-02-28T11:18:28;10.57;;;6.35;;
26082;SDS011;13848;49.018;12.078;2023-02-28T11:20:56;11.75;;;6.90;;
26082;SDS011;13848;49.018;12.078;2023-02-28T11:23:27;9.95;;;5.75;;
26082;SDS011;13848;49.018;12.078;2023-02-28T11:25:56;10.90;;;6.22;;
26082;SDS011;13848;49.018;12.078;2023-02-28T11:28:26;9.65;;;5.75;;
26082;SDS011;13848;49.018;12.078;2023-02-28T11:31:00;138.90;;;13.73;;
26082;SDS011;13848;49.018;12.078;2023-02-28T11:33:31;8.55;;;5.45;;
26082;SDS011;13848;49.018;12.078;2023-02-28T11:36:09;9.35;;;6.40;;
26082;SDS011;13848;49.018;12.078;2023-02-28T11:38:38;12.93;;;6.05;;
26082;SDS011;13848;49.018;12.078;2023-02-28T11:41:06;8.35;;;5.43;;
26082;SDS011;13848;49.018;12.078;2023-02-28T11:43:50;8.95;;;5.80;;
26082;SDS011;13848;49.018;12.078;2023-02-28T11:46:30;12.07;;;5.95;;
26082;SDS011;13848;49.018;12.078;2023-02-28T11:49:04;11.30;;;5.60;;
26082;SDS011;13848;49.018;12.078;2023-02-28T11:51:43;8.43;;;5.50;;
26082;SDS011;13848;49.018;12.078;2023-02-28T11:54:23;10.52;;;6.20;;
26082;SDS011;13848;49.018;12.078;2023-02-28T11:57:00;8.27;;;5.80;;
26082;SDS011;13848;49.018;12.078;2023-02-28T11:59:40;11.82;;;6.45;;
26082;SDS011;13848;49.018;12.078;2023-02-28T12:02:23;10.07;;;5.80;;
26082;SDS011;13848;49.018;12.078;2023-02-28T12:04:59;10.50;;;6.40;;
26082;SDS011;13848;49.018;12.078;2023-02-28T12:07:38;17.05;;;6.03;;
26082;SDS011;13848;49.018;12.078;2023-02-28T12:10:17;11.23;;;6.00;;
26082;SDS011;13848;49.018;12.078;2023-02-28T12:12:49;14.02;;;6.60;;
26082;SDS011;13848;49.018;12.078;2023-02-28T12:15:26;10.07;;;6.22;;
26082;SDS011;13848;49.018;12.078;2023-02-28T12:18:07;10.55;;;6.30;;
26082;SDS011;13848;49.018;12.078;2023-02-28T12:20:46;9.52;;;6.20;;
26082;SDS011;13848;49.018;12.078;2023-02-28T12:23:21;9.45;;;5.65;;
26082;SDS011;13848;49.018;12.078;2023-02-28T12:26:08;8.77;;;6.18;;
26082;SDS011;13848;49.018;12.078;2023-02-28T12:28:41;10.25;;;6.15;;
26082;SDS011;13848;49.018;12.078;2023-02-28T12:31:10;10.70;;;5.95;;
26082;SDS011;13848;49.018;12.078;2023-02-28T12:33:43;10.10;;;5.70;;
26082;SDS011;13848;49.018;12.078;2023-02-28T12:36:14;9.00;;;5.97;;
26082;SDS011;13848;49.018;12.078;2023-02-28T12:38:44;13.15;;;7.13;;
26082;SDS011;13848;49.018;12.078;2023-02-28T12:41:15;10.55;;;6.22;;
26082;SDS011;13848;49.018;12.078;2023-02-28T12:43:45;13.82;;;6.07;;
26082;SDS011;13848;49.018;12.078;2023-02-28T12:46:15;10.70;;;6.53;;
26082;SDS011;13848;49.018;12.078;2023-02-28T12:48:45;8.50;;;5.93;;
26082;SDS011;13848;49.018;12.078;2023-02-28T12:51:14;11.60;;;6.40;;
26082;SDS011;13848;49.018;12.078;2023-02-28T12:53:49;7.95;;;5.80;;
26082;SDS011;13848;49.018;12.078;2023-02-28T12:56:27;12.30;;;5.70;;
26082;SDS011;13848;49.018;12.078;2023-02-28T12:59:00;9.82;;;5.13;;
26082;SDS011;13848;49.018;12.078;2023-02-28T13:01:34;9.65;;;5.60;;
26082;SDS011;13848;49.018;12.078;2023-02-28T13:07:33;9.45;;;5.70;;
26082;SDS011;13848;49.018;12.078;2023-02-28T13:10:09;8.30;;;5.45;;
26082;SDS011;13848;49.018;12.078;2023-02-28T13:12:37;8.75;;;5.32;;
26082;SDS011;13848;49.018;12.078;2023-02-28T13:15:16;9.13;;;5.18;;
26082;SDS011;13848;49.018;12.078;2023-02-28T13:17:44;10.30;;;5.75;;
26082;SDS011;13848;49.018;12.078;2023-02-28T13:20:15;9.88;;;5.88;;
26082;SDS011;13848;49.018;12.078;2023-02-28T13:22:44;11.63;;;6.32;;
26082;SDS011;13848;49.018;12.078;2023-02-28T13:28:56;7.88;;;5.53;;
26082;SDS011;13848;49.018;12.078;2023-02-28T13:34:30;9.02;;;6.00;;
26082;SDS011;13848;49.018;12.078;2023-02-28T13:40:06;10.55;;;6.05;;
26082;SDS011;13848;49.018;12.078;2023-02-28T13:42:55;8.65;;;5.90;;
26082;SDS011;13848;49.018;12.078;2023-02-28T13:45:25;9.25;;;5.97;;
26082;SDS011;13848;49.018;12.078;2023-02-28T13:47:52;8.93;;;5.87;;
26082;SDS011;13848;49.018;12.078;2023-02-28T13:50:27;8.85;;;5.55;;
26082;SDS011;13848;49.018;12.078;2023-02-28T13:52:57;8.65;;;5.63;;
26082;SDS011;13848;49.018;12.078;2023-02-28T13:55:51;8.77;;;5.82;;
26082;SDS011;13848;49.018;12.078;2023-02-28T13:58:39;9.80;;;5.97;;
26082;SDS011;13848;49.018;12.078;2023-02-28T14:01:15;9.82;;;6.00;;
26082;SDS011;13848;49.018;12.078;2023-02-28T14:03:58;8.00;;;5.53;;
26082;SDS011;13848;49.018;12.078;2023-02-28T14:06:37;11.32;;;5.40;;
26082;SDS011;13848;49.018;12.078;2023-02-28T14:09:16;10.77;;;5.90;;
26082;SDS011;13848;49.018;12.078;2023-02-28T14:11:47;9.52;;;5.68;;
26082;SDS011;13848;49.018;12.078;2023-02-28T14:17:14;8.95;;;5.63;;
26082;SDS011;13848;49.018;12.078;2023-02-28T14:19:43;10.35;;;5.60;;
26082;SDS011;13848;49.018;12.078;2023-02-28T14:22:16;11.75;;;6.57;;
26082;SDS011;13848;49.018;12.078;2023-02-28T14:25:06;8.77;;;5.65;;
26082;SDS011;13848;49.018;12.078;2023-02-28T14:27:37;10.15;;;5.50;;
26082;SDS011;13848;49.018;12.078;2023-02-28T14:30:13;9.48;;;5.50;;
26082;SDS011;13848;49.018;12.078;2023-02-28T14:32:59;9.85;;;5.30;;
26082;SDS011;13848;49.018;12.078;2023-02-28T14:35:43;9.93;;;5.78;;
26082;SDS011;13848;49.018;12.078;2023-02-28T14:38:21;8.32;;;5.47;;
26082;SDS011;13848;49.018;12.078;2023-02-28T14:40:51;10.75;;;6.22;;
26082;SDS011;13848;49.018;12.078;2023-02-28T14:43:20;11.43;;;5.72;;
26082;SDS011;13848;49.018;12.078;2023-02-28T14:45:49;8.07;;;5.45;;
26082;SDS011;13848;49.018;12.078;2023-02-28T14:48:16;9.05;;;5.75;;
26082;SDS011;13848;49.018;12.078;2023-02-28T14:50:48;8.63;;;5.68;;
26082;SDS011;13848;49.018;12.078;2023-02-28T14:53:15;10.82;;;6.07;;
26082;SDS011;13848;49.018;12.078;2023-02-28T14:55:46;11.65;;;5.85;;
26082;SDS011;13848;49.018;12.078;2023-02-28T14:58:19;17.42;;;6.25;;
26082;SDS011;13848;49.018;12.078;2023-02-28T15:00:48;8.95;;;5.68;;
26082;SDS011;13848;49.018;12.078;2023-02-28T15:03:18;9.57;;;5.72;;
26082;SDS011;13848;49.018;12.078;2023-02-28T15:05:50;10.00;;;5.70;;
26082;SDS011;13848;49.018;12.078;2023-02-28T15:08:18;11.80;;;5.75;;
26082;SDS011;13848;49.018;12.078;2023-02-28T15:10:44;7.82;;;5.32;;